sensor_id;sensor_type;location;lat;lon;timestamp;P1;durP1;ratioP1;P2;durP2;ratioP2
146;SDS011;45999;48.808;9.182;2024-02-26T00:02:00;1.47;;;1.30;;
146;SDS011;45999;48.808;9.182;2024-02-26T00:04:27;1.20;;;1.10;;
146;SDS011;45999;48.808;9.182;2024-02-26T00:06:53;1.40;;;1.23;;
146;SDS011;45999;48.808;9.182;2024-02-26T00:09:20;2.73;;;1.30;;
146;SDS011;45999;48.808;9.182;2024-02-26T00:11:47;2.27;;;1.30;;
146;SDS011;45999;48.808;9.182;2024-02-26T00:14:13;2.13;;;1.20;;
146;SDS011;45999;48.808;9.182;2024-02-26T00:16:40;3.83;;;1.30;;
146;SDS011;45999;48.808;9.182;2024-02-26T00:19:07;1.30;;;1.20;;
146;SDS011;45999;48.808;9.182;2024-02-26T00:21:33;1.33;;;1.23;;
146;SDS011;45999;48.808;9.182;2024-02-26T00:23:59;1.90;;;1.33;;
146;SDS011;45999;48.808;9.182;2024-02-26T00:26:26;3.17;;;1.23;;
146;SDS011;45999;48.808;9.182;2024-02-26T00:28:52;2.00;;;1.57;;
146;SDS011;45999;48.808;9.182;2024-02-26T00:31:18;4.77;;;1.60;;
146;SDS011;45999;48.808;9.182;2024-02-26T00:33:45;2.43;;;1.57;;
146;SDS011;45999;48.808;9.182;2024-02-26T00:36:12;1.83;;;1.40;;
146;SDS011;45999;48.808;9.182;2024-02-26T00:38:38;1.47;;;1.37;;
146;SDS011;45999;48.808;9.182;2024-02-26T00:41:05;1.77;;;1.43;;
146;SDS011;45999;48.808;9.182;2024-02-26T00:43:31;2.53;;;1.53;;
146;SDS011;45999;48.808;9.182;2024-02-26T00:45:58;2.77;;;1.50;;
146;SDS011;45999;48.808;9.182;2024-02-26T00:48:25;3.53;;;1.33;;
146;SDS011;45999;48.808;9.182;2024-02-26T00:50:51;1.43;;;1.27;;
146;SDS011;45999;48.808;9.182;2024-02-26T00:53:18;1.37;;;1.27;;
146;SDS011;45999;48.808;9.182;2024-02-26T00:55:44;1.70;;;1.30;;
146;SDS011;45999;48.808;9.182;2024-02-26T00:58:10;1.67;;;1.23;;
146;SDS011;45999;48.808;9.182;2024-02-26T01:00:37;2.63;;;1.43;;
146;SDS011;45999;48.808;9.182;2024-02-26T01:03:03;1.33;;;1.13;;
146;SDS011;45999;48.808;9.182;2024-02-26T01:05:30;2.17;;;1.60;;
146;SDS011;45999;48.808;9.182;2024-02-26T01:07:56;1.40;;;1.27;;
146;SDS011;45999;48.808;9.182;2024-02-26T01:10:22;1.20;;;1.10;;
146;SDS011;45999;48.808;9.182;2024-02-26T01:12:49;1.53;;;1.10;;
146;SDS011;45999;48.808;9.182;2024-02-26T01:15:15;1.63;;;1.27;;
146;SDS011;45999;48.808;9.182;2024-02-26T01:17:43;1.90;;;1.30;;
146;SDS011;45999;48.808;9.182;2024-02-26T01:20:10;1.30;;;1.20;;
146;SDS011;45999;48.808;9.182;2024-02-26T01:22:36;1.87;;;1.20;;
146;SDS011;45999;48.808;9.182;2024-02-26T01:25:03;1.47;;;1.20;;
146;SDS011;45999;48.808;9.182;2024-02-26T01:27:30;2.93;;;1.10;;
146;SDS011;45999;48.808;9.182;2024-02-26T01:29:56;1.77;;;1.27;;
146;SDS011;45999;48.808;9.182;2024-02-26T01:32:22;1.70;;;1.13;;
146;SDS011;45999;48.808;9.182;2024-02-26T01:34:49;2.07;;;1.20;;
146;SDS011;45999;48.808;9.182;2024-02-26T01:37:15;1.30;;;0.87;;
146;SDS011;45999;48.808;9.182;2024-02-26T01:39:41;1.37;;;1.20;;
146;SDS011;45999;48.808;9.182;2024-02-26T01:42:08;2.90;;;1.10;;
146;SDS011;45999;48.808;9.182;2024-02-26T01:44:34;1.53;;;1.17;;
146;SDS011;45999;48.808;9.182;2024-02-26T01:47:00;1.63;;;1.43;;
146;SDS011;45999;48.808;9.182;2024-02-26T01:49:28;4.07;;;1.33;;
146;SDS011;45999;48.808;9.182;2024-02-26T01:51:55;2.00;;;1.50;;
146;SDS011;45999;48.808;9.182;2024-02-26T01:54:22;1.70;;;1.27;;
146;SDS011;45999;48.808;9.182;2024-02-26T01:56:48;2.60;;;1.20;;
146;SDS011;45999;48.808;9.182;2024-02-26T01:59:16;1.97;;;1.53;;
146;SDS011;45999;48.808;9.182;2024-02-26T02:01:44;3.40;;;1.50;;
146;SDS011;45999;48.808;9.182;2024-02-26T02:04:13;2.63;;;1.47;;
146;SDS011;45999;48.808;9.182;2024-02-26T02:06:40;2.27;;;1.13;;
146;SDS011;45999;48.808;9.182;2024-02-26T02:09:08;1.53;;;1.43;;
146;SDS011;45999;48.808;9.182;2024-02-26T02:11:35;1.80;;;1.43;;
146;SDS011;45999;48.808;9.182;2024-02-26T02:14:01;1.73;;;1.40;;
146;SDS011;45999;48.808;9.182;2024-02-26T02:16:28;1.10;;;1.10;;
146;SDS011;45999;48.808;9.182;2024-02-26T02:18:54;2.20;;;1.50;;
146;SDS011;45999;48.808;9.182;2024-02-26T02:21:20;2.10;;;1.47;;
146;SDS011;45999;48.808;9.182;2024-02-26T02:23:47;1.87;;;1.33;;
146;SDS011;45999;48.808;9.182;2024-02-26T02:26:14;3.10;;;1.40;;
146;SDS011;45999;48.808;9.182;2024-02-26T02:28:41;1.97;;;1.30;;
146;SDS011;45999;48.808;9.182;2024-02-26T02:31:07;2.37;;;1.40;;
146;SDS011;45999;48.808;9.182;2024-02-26T02:33:34;1.33;;;1.10;;
146;SDS011;45999;48.808;9.182;2024-02-26T02:36:00;1.80;;;1.40;;
146;SDS011;45999;48.808;9.182;2024-02-26T02:38:27;1.40;;;1.30;;
146;SDS011;45999;48.808;9.182;2024-02-26T02:40:55;3.03;;;1.20;;
146;SDS011;45999;48.808;9.182;2024-02-26T02:43:21;1.17;;;0.97;;
146;SDS011;45999;48.808;9.182;2024-02-26T02:45:47;1.33;;;0.80;;
146;SDS011;45999;48.808;9.182;2024-02-26T02:48:14;1.30;;;0.90;;
146;SDS011;45999;48.808;9.182;2024-02-26T02:50:40;1.27;;;1.17;;
146;SDS011;45999;48.808;9.182;2024-02-26T02:53:06;1.57;;;1.07;;
146;SDS011;45999;48.808;9.182;2024-02-26T02:55:33;1.23;;;0.90;;
146;SDS011;45999;48.808;9.182;2024-02-26T02:57:59;1.07;;;0.97;;
146;SDS011;45999;48.808;9.182;2024-02-26T03:00:25;1.20;;;1.00;;
146;SDS011;45999;48.808;9.182;2024-02-26T03:02:52;0.93;;;0.80;;
146;SDS011;45999;48.808;9.182;2024-02-26T03:05:18;0.70;;;0.70;;
146;SDS011;45999;48.808;9.182;2024-02-26T03:07:44;1.10;;;1.00;;
146;SDS011;45999;48.808;9.182;2024-02-26T03:10:11;1.30;;;1.20;;
146;SDS011;45999;48.808;9.182;2024-02-26T03:12:38;1.67;;;1.10;;
146;SDS011;45999;48.808;9.182;2024-02-26T03:15:05;1.13;;;1.03;;
146;SDS011;45999;48.808;9.182;2024-02-26T03:17:31;1.87;;;1.30;;
146;SDS011;45999;48.808;9.182;2024-02-26T03:19:58;1.50;;;0.97;;
146;SDS011;45999;48.808;9.182;2024-02-26T03:22:24;1.53;;;1.30;;
146;SDS011;45999;48.808;9.182;2024-02-26T03:24:50;1.20;;;1.10;;
146;SDS011;45999;48.808;9.182;2024-02-26T03:27:17;1.73;;;1.17;;
146;SDS011;45999;48.808;9.182;2024-02-26T03:29:43;1.53;;;1.10;;
146;SDS011;45999;48.808;9.182;2024-02-26T03:32:09;1.80;;;1.00;;
146;SDS011;45999;48.808;9.182;2024-02-26T03:34:36;1.10;;;1.00;;
146;SDS011;45999;48.808;9.182;2024-02-26T03:37:04;1.73;;;1.00;;
146;SDS011;45999;48.808;9.182;2024-02-26T03:39:30;0.90;;;0.90;;
146;SDS011;45999;48.808;9.182;2024-02-26T03:41:57;2.20;;;1.20;;
146;SDS011;45999;48.808;9.182;2024-02-26T03:44:23;1.40;;;1.30;;
146;SDS011;45999;48.808;9.182;2024-02-26T03:46:50;1.57;;;1.00;;
146;SDS011;45999;48.808;9.182;2024-02-26T03:49:16;1.40;;;1.30;;
146;SDS011;45999;48.808;9.182;2024-02-26T03:51:42;1.60;;;1.10;;
146;SDS011;45999;48.808;9.182;2024-02-26T03:54:09;1.50;;;1.20;;
146;SDS011;45999;48.808;9.182;2024-02-26T03:56:35;1.13;;;1.03;;
146;SDS011;45999;48.808;9.182;2024-02-26T03:59:01;1.20;;;1.00;;
146;SDS011;45999;48.808;9.182;2024-02-26T04:01:28;1.50;;;1.20;;
146;SDS011;45999;48.808;9.182;2024-02-26T04:03:54;1.63;;;1.53;;
146;SDS011;45999;48.808;9.182;2024-02-26T04:06:20;1.90;;;1.30;;
146;SDS011;45999;48.808;9.182;2024-02-26T04:08:47;2.07;;;1.60;;
146;SDS011;45999;48.808;9.182;2024-02-26T04:11:14;1.57;;;1.30;;
146;SDS011;45999;48.808;9.182;2024-02-26T04:13:43;2.50;;;1.50;;
146;SDS011;45999;48.808;9.182;2024-02-26T04:16:10;1.50;;;1.40;;
146;SDS011;45999;48.808;9.182;2024-02-26T04:18:37;3.93;;;1.80;;
146;SDS011;45999;48.808;9.182;2024-02-26T04:21:04;1.30;;;1.20;;
146;SDS011;45999;48.808;9.182;2024-02-26T04:23:31;1.40;;;1.30;;
146;SDS011;45999;48.808;9.182;2024-02-26T04:25:58;1.77;;;1.20;;
146;SDS011;45999;48.808;9.182;2024-02-26T04:28:25;2.07;;;1.40;;
146;SDS011;45999;48.808;9.182;2024-02-26T04:30:53;1.40;;;1.30;;
146;SDS011;45999;48.808;9.182;2024-02-26T04:33:20;2.57;;;1.20;;
146;SDS011;45999;48.808;9.182;2024-02-26T04:35:47;0.97;;;0.97;;
146;SDS011;45999;48.808;9.182;2024-02-26T04:38:13;1.50;;;1.27;;
146;SDS011;45999;48.808;9.182;2024-02-26T04:40:39;2.87;;;1.23;;
146;SDS011;45999;48.808;9.182;2024-02-26T04:43:06;1.20;;;1.10;;
146;SDS011;45999;48.808;9.182;2024-02-26T04:45:32;2.50;;;1.40;;
146;SDS011;45999;48.808;9.182;2024-02-26T04:47:59;1.50;;;1.40;;
146;SDS011;45999;48.808;9.182;2024-02-26T04:50:25;1.40;;;1.20;;
146;SDS011;45999;48.808;9.182;2024-02-26T04:52:52;3.93;;;1.50;;
146;SDS011;45999;48.808;9.182;2024-02-26T04:55:18;1.53;;;1.33;;
146;SDS011;45999;48.808;9.182;2024-02-26T04:57:45;1.27;;;1.10;;
146;SDS011;45999;48.808;9.182;2024-02-26T05:00:11;1.10;;;1.10;;
146;SDS011;45999;48.808;9.182;2024-02-26T05:02:38;2.20;;;1.30;;
146;SDS011;45999;48.808;9.182;2024-02-26T05:05:05;1.40;;;1.30;;
146;SDS011;45999;48.808;9.182;2024-02-26T05:07:33;1.27;;;1.17;;
146;SDS011;45999;48.808;9.182;2024-02-26T05:10:00;2.50;;;1.13;;
146;SDS011;45999;48.808;9.182;2024-02-26T05:12:26;1.50;;;1.40;;
146;SDS011;45999;48.808;9.182;2024-02-26T05:14:52;1.20;;;1.10;;
146;SDS011;45999;48.808;9.182;2024-02-26T05:17:19;2.67;;;1.83;;
146;SDS011;45999;48.808;9.182;2024-02-26T05:19:45;1.87;;;1.63;;
146;SDS011;45999;48.808;9.182;2024-02-26T05:22:11;3.57;;;1.40;;
146;SDS011;45999;48.808;9.182;2024-02-26T05:24:38;4.20;;;1.30;;
146;SDS011;45999;48.808;9.182;2024-02-26T05:27:04;2.57;;;1.57;;
146;SDS011;45999;48.808;9.182;2024-02-26T05:29:30;2.50;;;1.40;;
146;SDS011;45999;48.808;9.182;2024-02-26T05:31:57;1.93;;;1.30;;
146;SDS011;45999;48.808;9.182;2024-02-26T05:34:23;2.20;;;1.37;;
146;SDS011;45999;48.808;9.182;2024-02-26T05:36:49;1.70;;;1.37;;
146;SDS011;45999;48.808;9.182;2024-02-26T05:39:16;1.80;;;1.40;;
146;SDS011;45999;48.808;9.182;2024-02-26T05:41:42;1.47;;;1.37;;
146;SDS011;45999;48.808;9.182;2024-02-26T05:44:09;1.20;;;1.10;;
146;SDS011;45999;48.808;9.182;2024-02-26T05:46:37;1.67;;;1.30;;
146;SDS011;45999;48.808;9.182;2024-02-26T05:49:03;4.50;;;1.60;;
146;SDS011;45999;48.808;9.182;2024-02-26T05:51:29;3.23;;;1.30;;
146;SDS011;45999;48.808;9.182;2024-02-26T05:53:56;2.27;;;1.30;;
146;SDS011;45999;48.808;9.182;2024-02-26T05:56:23;3.53;;;1.47;;
146;SDS011;45999;48.808;9.182;2024-02-26T05:58:49;2.43;;;1.53;;
146;SDS011;45999;48.808;9.182;2024-02-26T06:01:16;1.77;;;1.30;;
146;SDS011;45999;48.808;9.182;2024-02-26T06:03:43;2.07;;;1.50;;
146;SDS011;45999;48.808;9.182;2024-02-26T06:06:12;3.70;;;1.73;;
146;SDS011;45999;48.808;9.182;2024-02-26T06:08:40;1.87;;;1.30;;
146;SDS011;45999;48.808;9.182;2024-02-26T06:11:06;3.83;;;1.40;;
146;SDS011;45999;48.808;9.182;2024-02-26T06:13:33;2.10;;;1.40;;
146;SDS011;45999;48.808;9.182;2024-02-26T06:16:00;2.57;;;1.60;;
146;SDS011;45999;48.808;9.182;2024-02-26T06:18:27;1.90;;;1.43;;
146;SDS011;45999;48.808;9.182;2024-02-26T06:20:54;1.63;;;1.53;;
146;SDS011;45999;48.808;9.182;2024-02-26T06:23:20;3.03;;;1.70;;
146;SDS011;45999;48.808;9.182;2024-02-26T06:25:46;1.90;;;1.63;;
146;SDS011;45999;48.808;9.182;2024-02-26T06:28:13;2.10;;;1.90;;
146;SDS011;45999;48.808;9.182;2024-02-26T06:30:40;1.73;;;1.60;;
146;SDS011;45999;48.808;9.182;2024-02-26T06:33:06;2.37;;;1.80;;
146;SDS011;45999;48.808;9.182;2024-02-26T06:35:32;4.03;;;1.90;;
146;SDS011;45999;48.808;9.182;2024-02-26T06:37:59;2.30;;;1.67;;
146;SDS011;45999;48.808;9.182;2024-02-26T06:40:25;1.73;;;1.63;;
146;SDS011;45999;48.808;9.182;2024-02-26T06:42:51;1.70;;;1.60;;
146;SDS011;45999;48.808;9.182;2024-02-26T06:45:18;3.23;;;1.87;;
146;SDS011;45999;48.808;9.182;2024-02-26T06:47:45;1.67;;;1.57;;
146;SDS011;45999;48.808;9.182;2024-02-26T06:50:11;3.27;;;1.93;;
146;SDS011;45999;48.808;9.182;2024-02-26T06:52:38;2.80;;;1.83;;
146;SDS011;45999;48.808;9.182;2024-02-26T06:55:05;1.97;;;1.80;;
146;SDS011;45999;48.808;9.182;2024-02-26T06:57:33;2.50;;;1.80;;
146;SDS011;45999;48.808;9.182;2024-02-26T06:59:59;1.90;;;1.63;;
146;SDS011;45999;48.808;9.182;2024-02-26T07:02:28;3.77;;;2.17;;
146;SDS011;45999;48.808;9.182;2024-02-26T07:04:55;2.07;;;1.83;;
146;SDS011;45999;48.808;9.182;2024-02-26T07:07:23;3.10;;;2.10;;
146;SDS011;45999;48.808;9.182;2024-02-26T07:09:51;2.17;;;1.80;;
146;SDS011;45999;48.808;9.182;2024-02-26T07:12:18;2.80;;;2.17;;
146;SDS011;45999;48.808;9.182;2024-02-26T07:14:44;2.90;;;1.70;;
146;SDS011;45999;48.808;9.182;2024-02-26T07:17:11;2.30;;;1.80;;
146;SDS011;45999;48.808;9.182;2024-02-26T07:19:37;3.17;;;2.10;;
146;SDS011;45999;48.808;9.182;2024-02-26T07:22:04;2.13;;;1.93;;
146;SDS011;45999;48.808;9.182;2024-02-26T07:24:30;3.00;;;2.20;;
146;SDS011;45999;48.808;9.182;2024-02-26T07:26:57;5.00;;;2.00;;
146;SDS011;45999;48.808;9.182;2024-02-26T07:29:23;4.93;;;2.23;;
146;SDS011;45999;48.808;9.182;2024-02-26T07:31:49;2.10;;;1.90;;
146;SDS011;45999;48.808;9.182;2024-02-26T07:34:17;3.90;;;2.40;;
146;SDS011;45999;48.808;9.182;2024-02-26T07:36:43;4.03;;;2.40;;
146;SDS011;45999;48.808;9.182;2024-02-26T07:39:09;3.73;;;2.73;;
146;SDS011;45999;48.808;9.182;2024-02-26T07:41:36;3.67;;;2.27;;
146;SDS011;45999;48.808;9.182;2024-02-26T07:44:03;3.87;;;2.40;;
146;SDS011;45999;48.808;9.182;2024-02-26T07:46:30;4.17;;;2.50;;
146;SDS011;45999;48.808;9.182;2024-02-26T07:48:56;4.47;;;2.80;;
146;SDS011;45999;48.808;9.182;2024-02-26T07:51:22;3.93;;;3.23;;
146;SDS011;45999;48.808;9.182;2024-02-26T07:53:49;6.90;;;3.07;;
146;SDS011;45999;48.808;9.182;2024-02-26T07:56:17;4.33;;;2.87;;
146;SDS011;45999;48.808;9.182;2024-02-26T07:58:44;5.83;;;3.20;;
146;SDS011;45999;48.808;9.182;2024-02-26T08:01:13;3.73;;;2.53;;
146;SDS011;45999;48.808;9.182;2024-02-26T08:03:40;4.73;;;3.10;;
146;SDS011;45999;48.808;9.182;2024-02-26T08:06:07;6.43;;;3.17;;
146;SDS011;45999;48.808;9.182;2024-02-26T08:08:34;8.17;;;3.47;;
146;SDS011;45999;48.808;9.182;2024-02-26T08:11:00;9.20;;;3.37;;
146;SDS011;45999;48.808;9.182;2024-02-26T08:13:27;4.37;;;3.43;;
146;SDS011;45999;48.808;9.182;2024-02-26T08:15:53;7.37;;;4.20;;
146;SDS011;45999;48.808;9.182;2024-02-26T08:18:20;9.47;;;4.00;;
146;SDS011;45999;48.808;9.182;2024-02-26T08:20:46;7.10;;;3.77;;
146;SDS011;45999;48.808;9.182;2024-02-26T08:23:13;9.70;;;4.47;;
146;SDS011;45999;48.808;9.182;2024-02-26T08:25:40;10.33;;;4.13;;
146;SDS011;45999;48.808;9.182;2024-02-26T08:28:06;4.03;;;3.03;;
146;SDS011;45999;48.808;9.182;2024-02-26T08:30:33;12.87;;;3.60;;
146;SDS011;45999;48.808;9.182;2024-02-26T08:32:59;7.63;;;3.90;;
146;SDS011;45999;48.808;9.182;2024-02-26T08:35:25;6.00;;;3.20;;
146;SDS011;45999;48.808;9.182;2024-02-26T08:37:52;4.20;;;3.20;;
146;SDS011;45999;48.808;9.182;2024-02-26T08:40:18;5.33;;;3.30;;
146;SDS011;45999;48.808;9.182;2024-02-26T08:42:45;5.10;;;3.10;;
146;SDS011;45999;48.808;9.182;2024-02-26T08:45:12;6.57;;;3.37;;
146;SDS011;45999;48.808;9.182;2024-02-26T08:47:38;5.23;;;3.10;;
146;SDS011;45999;48.808;9.182;2024-02-26T08:50:05;5.67;;;3.00;;
146;SDS011;45999;48.808;9.182;2024-02-26T08:52:34;4.63;;;3.10;;
146;SDS011;45999;48.808;9.182;2024-02-26T08:55:01;4.60;;;3.13;;
146;SDS011;45999;48.808;9.182;2024-02-26T08:57:27;8.20;;;3.27;;
146;SDS011;45999;48.808;9.182;2024-02-26T08:59:54;6.23;;;2.87;;
146;SDS011;45999;48.808;9.182;2024-02-26T09:02:20;5.40;;;2.97;;
146;SDS011;45999;48.808;9.182;2024-02-26T09:04:46;5.40;;;2.80;;
146;SDS011;45999;48.808;9.182;2024-02-26T09:07:13;7.50;;;3.20;;
146;SDS011;45999;48.808;9.182;2024-02-26T09:09:39;4.80;;;2.70;;
146;SDS011;45999;48.808;9.182;2024-02-26T09:12:06;7.90;;;3.07;;
146;SDS011;45999;48.808;9.182;2024-02-26T09:14:32;5.53;;;2.93;;
146;SDS011;45999;48.808;9.182;2024-02-26T09:16:58;5.93;;;2.77;;
146;SDS011;45999;48.808;9.182;2024-02-26T09:19:25;3.80;;;2.57;;
146;SDS011;45999;48.808;9.182;2024-02-26T09:21:52;5.03;;;2.70;;
146;SDS011;45999;48.808;9.182;2024-02-26T09:24:22;6.67;;;2.73;;
146;SDS011;45999;48.808;9.182;2024-02-26T09:26:49;7.13;;;3.00;;
146;SDS011;45999;48.808;9.182;2024-02-26T09:29:15;5.27;;;2.97;;
146;SDS011;45999;48.808;9.182;2024-02-26T09:31:42;3.93;;;2.40;;
146;SDS011;45999;48.808;9.182;2024-02-26T09:34:12;3.03;;;2.30;;
146;SDS011;45999;48.808;9.182;2024-02-26T09:36:38;2.27;;;1.97;;
146;SDS011;45999;48.808;9.182;2024-02-26T09:39:04;3.40;;;2.13;;
146;SDS011;45999;48.808;9.182;2024-02-26T09:41:32;3.00;;;2.30;;
146;SDS011;45999;48.808;9.182;2024-02-26T09:43:58;3.43;;;2.30;;
146;SDS011;45999;48.808;9.182;2024-02-26T09:46:28;4.57;;;2.20;;
146;SDS011;45999;48.808;9.182;2024-02-26T09:48:54;3.13;;;2.23;;
146;SDS011;45999;48.808;9.182;2024-02-26T09:51:22;2.80;;;2.37;;
146;SDS011;45999;48.808;9.182;2024-02-26T09:53:49;3.03;;;2.17;;
146;SDS011;45999;48.808;9.182;2024-02-26T09:56:18;4.70;;;2.27;;
146;SDS011;45999;48.808;9.182;2024-02-26T09:58:45;2.83;;;2.10;;
146;SDS011;45999;48.808;9.182;2024-02-26T10:01:16;3.47;;;1.90;;
146;SDS011;45999;48.808;9.182;2024-02-26T10:03:44;3.10;;;2.07;;
146;SDS011;45999;48.808;9.182;2024-02-26T10:06:23;3.80;;;2.00;;
146;SDS011;45999;48.808;9.182;2024-02-26T10:08:52;3.60;;;1.80;;
146;SDS011;45999;48.808;9.182;2024-02-26T10:11:20;2.23;;;1.77;;
146;SDS011;45999;48.808;9.182;2024-02-26T10:13:46;2.53;;;2.10;;
146;SDS011;45999;48.808;9.182;2024-02-26T10:16:13;3.40;;;2.23;;
146;SDS011;45999;48.808;9.182;2024-02-26T10:18:46;3.53;;;2.07;;
146;SDS011;45999;48.808;9.182;2024-02-26T10:21:13;2.10;;;1.80;;
146;SDS011;45999;48.808;9.182;2024-02-26T10:23:41;2.63;;;1.73;;
146;SDS011;45999;48.808;9.182;2024-02-26T10:26:08;2.17;;;1.73;;
146;SDS011;45999;48.808;9.182;2024-02-26T10:28:37;2.90;;;1.80;;
146;SDS011;45999;48.808;9.182;2024-02-26T10:31:03;3.33;;;1.90;;
146;SDS011;45999;48.808;9.182;2024-02-26T10:33:31;2.97;;;1.40;;
146;SDS011;45999;48.808;9.182;2024-02-26T10:36:00;3.00;;;1.47;;
146;SDS011;45999;48.808;9.182;2024-02-26T10:38:27;4.43;;;1.70;;
146;SDS011;45999;48.808;9.182;2024-02-26T10:40:53;2.07;;;1.80;;
146;SDS011;45999;48.808;9.182;2024-02-26T10:43:20;2.77;;;1.60;;
146;SDS011;45999;48.808;9.182;2024-02-26T10:45:46;1.80;;;1.50;;
146;SDS011;45999;48.808;9.182;2024-02-26T10:48:13;1.90;;;1.80;;
146;SDS011;45999;48.808;9.182;2024-02-26T10:50:41;3.40;;;1.57;;
146;SDS011;45999;48.808;9.182;2024-02-26T10:53:20;2.73;;;1.90;;
146;SDS011;45999;48.808;9.182;2024-02-26T10:55:48;2.47;;;1.80;;
146;SDS011;45999;48.808;9.182;2024-02-26T10:58:23;2.90;;;1.73;;
146;SDS011;45999;48.808;9.182;2024-02-26T11:00:50;2.83;;;1.70;;
146;SDS011;45999;48.808;9.182;2024-02-26T11:03:18;3.53;;;1.90;;
146;SDS011;45999;48.808;9.182;2024-02-26T11:05:49;3.33;;;2.17;;
146;SDS011;45999;48.808;9.182;2024-02-26T11:08:18;2.53;;;2.10;;
146;SDS011;45999;48.808;9.182;2024-02-26T11:10:48;2.27;;;2.07;;
146;SDS011;45999;48.808;9.182;2024-02-26T11:13:18;2.27;;;2.07;;
146;SDS011;45999;48.808;9.182;2024-02-26T11:15:47;3.50;;;2.00;;
146;SDS011;45999;48.808;9.182;2024-02-26T11:18:17;5.40;;;2.60;;
146;SDS011;45999;48.808;9.182;2024-02-26T11:20:46;2.40;;;1.73;;
146;SDS011;45999;48.808;9.182;2024-02-26T11:23:14;4.03;;;2.00;;
146;SDS011;45999;48.808;9.182;2024-02-26T11:25:41;3.63;;;1.97;;
146;SDS011;45999;48.808;9.182;2024-02-26T11:28:09;1.90;;;1.67;;
146;SDS011;45999;48.808;9.182;2024-02-26T11:30:39;4.10;;;1.70;;
146;SDS011;45999;48.808;9.182;2024-02-26T11:33:10;3.10;;;2.20;;
146;SDS011;45999;48.808;9.182;2024-02-26T11:35:37;3.00;;;2.07;;
146;SDS011;45999;48.808;9.182;2024-02-26T11:38:04;3.03;;;2.23;;
146;SDS011;45999;48.808;9.182;2024-02-26T11:40:32;4.73;;;2.43;;
146;SDS011;45999;48.808;9.182;2024-02-26T11:42:59;4.17;;;2.43;;
146;SDS011;45999;48.808;9.182;2024-02-26T11:48:14;2.93;;;2.20;;
146;SDS011;45999;48.808;9.182;2024-02-26T11:50:45;4.57;;;2.07;;
146;SDS011;45999;48.808;9.182;2024-02-26T11:53:23;1.73;;;1.60;;
146;SDS011;45999;48.808;9.182;2024-02-26T11:58:46;1.80;;;1.70;;
146;SDS011;45999;48.808;9.182;2024-02-26T12:04:07;2.30;;;1.67;;
146;SDS011;45999;48.808;9.182;2024-02-26T12:06:41;1.83;;;1.53;;
146;SDS011;45999;48.808;9.182;2024-02-26T12:09:09;2.03;;;1.80;;
146;SDS011;45999;48.808;9.182;2024-02-26T12:11:39;3.57;;;1.80;;
146;SDS011;45999;48.808;9.182;2024-02-26T12:14:07;2.13;;;1.73;;
146;SDS011;45999;48.808;9.182;2024-02-26T12:16:38;1.90;;;1.80;;
146;SDS011;45999;48.808;9.182;2024-02-26T12:19:08;2.87;;;1.63;;
146;SDS011;45999;48.808;9.182;2024-02-26T12:21:36;1.67;;;1.53;;
146;SDS011;45999;48.808;9.182;2024-02-26T12:24:08;2.23;;;1.43;;
146;SDS011;45999;48.808;9.182;2024-02-26T12:26:38;2.10;;;1.40;;
146;SDS011;45999;48.808;9.182;2024-02-26T12:29:05;2.53;;;1.33;;
146;SDS011;45999;48.808;9.182;2024-02-26T12:31:32;1.97;;;1.50;;
146;SDS011;45999;48.808;9.182;2024-02-26T12:34:01;2.10;;;1.50;;
146;SDS011;45999;48.808;9.182;2024-02-26T12:36:28;2.23;;;2.03;;
146;SDS011;45999;48.808;9.182;2024-02-26T12:38:54;2.03;;;1.83;;
146;SDS011;45999;48.808;9.182;2024-02-26T12:41:21;2.23;;;1.43;;
146;SDS011;45999;48.808;9.182;2024-02-26T12:43:48;1.40;;;1.30;;
146;SDS011;45999;48.808;9.182;2024-02-26T12:46:15;1.33;;;1.20;;
146;SDS011;45999;48.808;9.182;2024-02-26T12:48:46;1.00;;;0.90;;
146;SDS011;45999;48.808;9.182;2024-02-26T12:51:14;2.10;;;1.00;;
146;SDS011;45999;48.808;9.182;2024-02-26T12:53:42;1.10;;;1.00;;
146;SDS011;45999;48.808;9.182;2024-02-26T12:56:11;1.60;;;1.13;;
146;SDS011;45999;48.808;9.182;2024-02-26T12:58:38;2.00;;;1.10;;
146;SDS011;45999;48.808;9.182;2024-02-26T13:01:06;1.53;;;1.10;;
146;SDS011;45999;48.808;9.182;2024-02-26T13:03:39;2.70;;;1.47;;
146;SDS011;45999;48.808;9.182;2024-02-26T13:06:06;2.70;;;1.20;;
146;SDS011;45999;48.808;9.182;2024-02-26T13:08:33;2.37;;;1.47;;
146;SDS011;45999;48.808;9.182;2024-02-26T13:10:59;1.93;;;1.10;;
146;SDS011;45999;48.808;9.182;2024-02-26T13:13:26;2.43;;;1.40;;
146;SDS011;45999;48.808;9.182;2024-02-26T13:16:05;2.70;;;1.50;;
146;SDS011;45999;48.808;9.182;2024-02-26T13:18:33;1.10;;;1.00;;
146;SDS011;45999;48.808;9.182;2024-02-26T13:21:07;1.67;;;1.23;;
146;SDS011;45999;48.808;9.182;2024-02-26T13:23:35;1.63;;;0.90;;
146;SDS011;45999;48.808;9.182;2024-02-26T13:26:01;2.07;;;1.30;;
146;SDS011;45999;48.808;9.182;2024-02-26T13:28:28;1.40;;;1.30;;
146;SDS011;45999;48.808;9.182;2024-02-26T13:30:54;3.90;;;1.60;;
146;SDS011;45999;48.808;9.182;2024-02-26T13:33:22;2.53;;;1.50;;
146;SDS011;45999;48.808;9.182;2024-02-26T13:35:49;2.23;;;1.13;;
146;SDS011;45999;48.808;9.182;2024-02-26T13:38:16;1.67;;;1.43;;
146;SDS011;45999;48.808;9.182;2024-02-26T13:40:43;2.23;;;1.20;;
146;SDS011;45999;48.808;9.182;2024-02-26T13:43:09;2.60;;;1.40;;
146;SDS011;45999;48.808;9.182;2024-02-26T13:45:36;1.20;;;1.10;;
146;SDS011;45999;48.808;9.182;2024-02-26T13:48:07;3.93;;;1.10;;
146;SDS011;45999;48.808;9.182;2024-02-26T13:50:36;2.90;;;1.30;;
146;SDS011;45999;48.808;9.182;2024-02-26T13:53:03;2.93;;;1.17;;
146;SDS011;45999;48.808;9.182;2024-02-26T13:55:30;1.10;;;1.00;;
146;SDS011;45999;48.808;9.182;2024-02-26T13:57:58;3.90;;;1.40;;
146;SDS011;45999;48.808;9.182;2024-02-26T14:00:26;1.43;;;1.07;;
146;SDS011;45999;48.808;9.182;2024-02-26T14:02:53;1.00;;;1.00;;
146;SDS011;45999;48.808;9.182;2024-02-26T14:05:19;2.63;;;1.40;;
146;SDS011;45999;48.808;9.182;2024-02-26T14:07:46;1.40;;;1.30;;
146;SDS011;45999;48.808;9.182;2024-02-26T14:10:12;2.63;;;1.27;;
146;SDS011;45999;48.808;9.182;2024-02-26T14:12:39;1.00;;;0.90;;
146;SDS011;45999;48.808;9.182;2024-02-26T14:15:06;1.53;;;1.20;;
146;SDS011;45999;48.808;9.182;2024-02-26T14:17:33;1.33;;;1.00;;
146;SDS011;45999;48.808;9.182;2024-02-26T14:19:59;1.53;;;1.10;;
146;SDS011;45999;48.808;9.182;2024-02-26T14:22:25;1.10;;;0.97;;
146;SDS011;45999;48.808;9.182;2024-02-26T14:24:52;5.07;;;1.70;;
146;SDS011;45999;48.808;9.182;2024-02-26T14:27:19;1.43;;;0.73;;
146;SDS011;45999;48.808;9.182;2024-02-26T14:29:47;1.77;;;0.80;;
146;SDS011;45999;48.808;9.182;2024-02-26T14:32:14;0.97;;;0.80;;
146;SDS011;45999;48.808;9.182;2024-02-26T14:34:41;0.80;;;0.80;;
146;SDS011;45999;48.808;9.182;2024-02-26T14:37:07;2.13;;;1.00;;
146;SDS011;45999;48.808;9.182;2024-02-26T14:39:34;0.77;;;0.60;;
146;SDS011;45999;48.808;9.182;2024-02-26T14:42:00;0.70;;;0.70;;
146;SDS011;45999;48.808;9.182;2024-02-26T14:44:27;1.63;;;0.70;;
146;SDS011;45999;48.808;9.182;2024-02-26T14:46:54;0.60;;;0.60;;
146;SDS011;45999;48.808;9.182;2024-02-26T14:49:20;2.23;;;0.57;;
146;SDS011;45999;48.808;9.182;2024-02-26T14:51:46;0.50;;;0.50;;
146;SDS011;45999;48.808;9.182;2024-02-26T14:54:13;1.43;;;0.70;;
146;SDS011;45999;48.808;9.182;2024-02-26T14:56:40;1.13;;;0.70;;
146;SDS011;45999;48.808;9.182;2024-02-26T14:59:06;0.70;;;0.50;;
146;SDS011;45999;48.808;9.182;2024-02-26T15:01:33;0.60;;;0.60;;
146;SDS011;45999;48.808;9.182;2024-02-26T15:03:59;0.63;;;0.60;;
146;SDS011;45999;48.808;9.182;2024-02-26T15:06:26;0.57;;;0.57;;
146;SDS011;45999;48.808;9.182;2024-02-26T15:08:52;1.10;;;0.70;;
146;SDS011;45999;48.808;9.182;2024-02-26T15:11:18;0.60;;;0.60;;
146;SDS011;45999;48.808;9.182;2024-02-26T15:13:45;0.67;;;0.67;;
146;SDS011;45999;48.808;9.182;2024-02-26T15:16:18;0.80;;;0.60;;
146;SDS011;45999;48.808;9.182;2024-02-26T15:18:45;2.10;;;1.23;;
146;SDS011;45999;48.808;9.182;2024-02-26T15:21:12;1.63;;;0.97;;
146;SDS011;45999;48.808;9.182;2024-02-26T15:23:39;0.73;;;0.70;;